sensor_id;sensor_type;location;lat;lon;timestamp;pressure;altitude;pressure_sealevel;temperature;humidity
53900;BME280;40509;32.858;-116.858;2023-03-19T00:00:36;98015.31;;;20.43;51.20
53900;BME280;40509;32.858;-116.858;2023-03-19T00:03:03;98010.06;;;20.43;51.19
53900;BME280;40509;32.858;-116.858;2023-03-19T00:05:31;98015.31;;;20.43;51.31
53900;BME280;40509;32.858;-116.858;2023-03-19T00:07:58;98024.94;;;20.43;51.13
53900;BME280;40509;32.858;-116.858;2023-03-19T00:10:25;98021.38;;;20.44;51.39
53900;BME280;40509;32.858;-116.858;2023-03-19T00:12:53;98018.75;;;20.44;51.18
53900;BME280;40509;32.858;-116.858;2023-03-19T00:15:20;98019.44;;;20.46;51.20
53900;BME280;40509;32.858;-116.858;2023-03-19T00:17:47;98016.94;;;20.44;51.37
53900;BME280;40509;32.858;-116.858;2023-03-19T00:20:14;98027.44;;;20.44;51.21
53900;BME280;40509;32.858;-116.858;2023-03-19T00:22:43;98027.31;;;20.46;51.15
53900;BME280;40509;32.858;-116.858;2023-03-19T00:25:11;98016.56;;;20.39;51.62
53900;BME280;40509;32.858;-116.858;2023-03-19T00:27:39;98013.09;;;20.38;51.73
53900;BME280;40509;32.858;-116.858;2023-03-19T00:30:07;98017.53;;;20.38;51.56
53900;BME280;40509;32.858;-116.858;2023-03-19T00:32:35;98020.97;;;20.38;51.65
53900;BME280;40509;32.858;-116.858;2023-03-19T00:35:04;98026.34;;;20.37;51.86
53900;BME280;40509;32.858;-116.858;2023-03-19T00:37:32;98022.75;;;20.38;51.59
53900;BME280;40509;32.858;-116.858;2023-03-19T00:40:00;98021.50;;;20.42;51.65
53900;BME280;40509;32.858;-116.858;2023-03-19T00:42:28;98032.56;;;20.46;51.36
53900;BME280;40509;32.858;-116.858;2023-03-19T00:44:55;98033.38;;;20.46;50.50
53900;BME280;40509;32.858;-116.858;2023-03-19T00:47:24;98043.56;;;20.49;45.36
53900;BME280;40509;32.858;-116.858;2023-03-19T00:49:51;98046.75;;;20.53;42.03
53900;BME280;40509;32.858;-116.858;2023-03-19T00:52:19;98052.41;;;20.58;42.83
53900;BME280;40509;32.858;-116.858;2023-03-19T00:54:46;98050.19;;;20.63;45.46
53900;BME280;40509;32.858;-116.858;2023-03-19T00:57:14;98048.66;;;20.61;48.33
53900;BME280;40509;32.858;-116.858;2023-03-19T00:59:41;98050.59;;;20.59;48.93
53900;BME280;40509;32.858;-116.858;2023-03-19T01:02:12;98053.06;;;20.60;48.71
53900;BME280;40509;32.858;-116.858;2023-03-19T01:04:40;98054.16;;;20.58;49.05
53900;BME280;40509;32.858;-116.858;2023-03-19T01:07:08;98059.53;;;20.66;49.55
53900;BME280;40509;32.858;-116.858;2023-03-19T01:09:38;98058.16;;;20.62;49.59
53900;BME280;40509;32.858;-116.858;2023-03-19T01:12:10;98058.16;;;20.62;50.02
53900;BME280;40509;32.858;-116.858;2023-03-19T01:14:38;98067.28;;;20.58;50.05
53900;BME280;40509;32.858;-116.858;2023-03-19T01:17:07;98066.59;;;20.65;44.99
53900;BME280;40509;32.858;-116.858;2023-03-19T01:19:34;98070.47;;;20.71;47.77
53900;BME280;40509;32.858;-116.858;2023-03-19T01:22:01;98075.03;;;20.69;49.78
53900;BME280;40509;32.858;-116.858;2023-03-19T01:24:31;98073.22;;;20.69;50.27
53900;BME280;40509;32.858;-116.858;2023-03-19T01:26:59;98075.16;;;20.67;50.49
53900;BME280;40509;32.858;-116.858;2023-03-19T01:29:30;98070.72;;;20.68;50.98
53900;BME280;40509;32.858;-116.858;2023-03-19T01:32:01;98069.91;;;20.67;51.01
53900;BME280;40509;32.858;-116.858;2023-03-19T01:34:38;98073.09;;;20.71;50.87
53900;BME280;40509;32.858;-116.858;2023-03-19T01:37:09;98075.44;;;20.74;50.89
53900;BME280;40509;32.858;-116.858;2023-03-19T01:39:39;98080.13;;;20.70;50.99
53900;BME280;40509;32.858;-116.858;2023-03-19T01:42:10;98085.25;;;20.72;51.28
53900;BME280;40509;32.858;-116.858;2023-03-19T01:45:34;98083.84;;;20.78;50.26
53900;BME280;40509;32.858;-116.858;2023-03-19T01:48:45;98084.44;;;20.71;50.58
53900;BME280;40509;32.858;-116.858;2023-03-19T01:51:22;98084.53;;;20.70;50.61
53900;BME280;40509;32.858;-116.858;2023-03-19T01:54:04;98086.75;;;20.65;47.35
53900;BME280;40509;32.858;-116.858;2023-03-19T01:56:48;98096.94;;;20.68;49.01
53900;BME280;40509;32.858;-116.858;2023-03-19T01:59:29;98095.03;;;20.70;48.44
53900;BME280;40509;32.858;-116.858;2023-03-19T02:02:31;98093.41;;;20.69;49.36
53900;BME280;40509;32.858;-116.858;2023-03-19T02:07:33;98101.69;;;20.74;50.59
53900;BME280;40509;32.858;-116.858;2023-03-19T02:10:04;98107.34;;;20.69;50.72
53900;BME280;40509;32.858;-116.858;2023-03-19T02:12:33;98116.00;;;20.70;51.14
53900;BME280;40509;32.858;-116.858;2023-03-19T02:15:01;98117.38;;;20.64;51.49
53900;BME280;40509;32.858;-116.858;2023-03-19T02:17:28;98116.16;;;20.68;51.44
53900;BME280;40509;32.858;-116.858;2023-03-19T02:23:33;98110.78;;;20.70;51.46
53900;BME280;40509;32.858;-116.858;2023-03-19T02:26:12;98125.69;;;20.69;51.88
53900;BME280;40509;32.858;-116.858;2023-03-19T02:28:42;98122.66;;;20.74;51.73
53900;BME280;40509;32.858;-116.858;2023-03-19T02:31:12;98126.22;;;20.83;51.83
53900;BME280;40509;32.858;-116.858;2023-03-19T02:33:39;98124.31;;;20.85;51.70
53900;BME280;40509;32.858;-116.858;2023-03-19T02:36:15;98121.53;;;20.86;51.76
53900;BME280;40509;32.858;-116.858;2023-03-19T02:38:45;98120.69;;;20.86;51.92
53900;BME280;40509;32.858;-116.858;2023-03-19T02:41:14;98123.00;;;20.99;51.88
53900;BME280;40509;32.858;-116.858;2023-03-19T02:43:42;98129.03;;;21.09;51.84
53900;BME280;40509;32.858;-116.858;2023-03-19T02:46:11;98122.78;;;21.20;51.48
53900;BME280;40509;32.858;-116.858;2023-03-19T02:48:41;98119.75;;;21.25;51.36
53900;BME280;40509;32.858;-116.858;2023-03-19T02:51:08;98125.19;;;21.41;51.14
53900;BME280;40509;32.858;-116.858;2023-03-19T02:53:35;98119.94;;;21.41;51.22
53900;BME280;40509;32.858;-116.858;2023-03-19T02:56:03;98121.31;;;21.45;51.36
53900;BME280;40509;32.858;-116.858;2023-03-19T02:58:30;98113.78;;;21.60;50.61
53900;BME280;40509;32.858;-116.858;2023-03-19T03:00:57;98112.81;;;21.61;51.02
53900;BME280;40509;32.858;-116.858;2023-03-19T03:03:24;98120.09;;;21.67;50.85
53900;BME280;40509;32.858;-116.858;2023-03-19T03:05:52;98124.78;;;21.73;51.00
53900;BME280;40509;32.858;-116.858;2023-03-19T03:08:19;98122.16;;;21.73;50.92
53900;BME280;40509;32.858;-116.858;2023-03-19T03:10:46;98117.13;;;21.80;50.71
53900;BME280;40509;32.858;-116.858;2023-03-19T03:13:14;98121.19;;;21.93;50.46
53900;BME280;40509;32.858;-116.858;2023-03-19T03:15:41;98125.41;;;22.03;50.75
53900;BME280;40509;32.858;-116.858;2023-03-19T03:18:08;98118.25;;;21.96;50.91
53900;BME280;40509;32.858;-116.858;2023-03-19T03:20:36;98121.50;;;21.89;51.15
53900;BME280;40509;32.858;-116.858;2023-03-19T03:23:04;98123.44;;;21.87;51.02
53900;BME280;40509;32.858;-116.858;2023-03-19T03:25:32;98134.66;;;21.89;51.29
53900;BME280;40509;32.858;-116.858;2023-03-19T03:27:59;98136.97;;;21.93;51.28
53900;BME280;40509;32.858;-116.858;2023-03-19T03:30:27;98139.28;;;21.96;51.06
53900;BME280;40509;32.858;-116.858;2023-03-19T03:32:54;98146.22;;;21.97;51.19
53900;BME280;40509;32.858;-116.858;2023-03-19T03:35:22;98152.44;;;21.96;51.53
53900;BME280;40509;32.858;-116.858;2023-03-19T03:37:50;98152.28;;;21.97;51.47
53900;BME280;40509;32.858;-116.858;2023-03-19T03:40:18;98153.28;;;21.96;51.70
53900;BME280;40509;32.858;-116.858;2023-03-19T03:42:46;98154.91;;;21.97;51.82
53900;BME280;40509;32.858;-116.858;2023-03-19T03:45:13;98149.81;;;21.96;51.58
53900;BME280;40509;32.858;-116.858;2023-03-19T03:47:44;98144.03;;;21.92;51.59
53900;BME280;40509;32.858;-116.858;2023-03-19T03:50:11;98137.94;;;21.92;51.89
53900;BME280;40509;32.858;-116.858;2023-03-19T03:52:40;98133.66;;;21.90;51.90
53900;BME280;40509;32.858;-116.858;2023-03-19T03:55:08;98143.50;;;21.88;52.06
53900;BME280;40509;32.858;-116.858;2023-03-19T03:57:36;98142.44;;;21.81;52.31
53900;BME280;40509;32.858;-116.858;2023-03-19T04:00:03;98141.97;;;21.68;53.60
53900;BME280;40509;32.858;-116.858;2023-03-19T04:02:39;98139.50;;;21.66;54.10
53900;BME280;40509;32.858;-116.858;2023-03-19T04:05:10;98142.25;;;21.65;54.41
53900;BME280;40509;32.858;-116.858;2023-03-19T04:07:39;98128.44;;;21.63;54.05
53900;BME280;40509;32.858;-116.858;2023-03-19T04:10:07;98118.34;;;21.58;54.28
53900;BME280;40509;32.858;-116.858;2023-03-19T04:12:37;98120.16;;;21.58;54.27
53900;BME280;40509;32.858;-116.858;2023-03-19T04:15:06;98125.13;;;21.61;53.90
53900;BME280;40509;32.858;-116.858;2023-03-19T04:17:37;98128.84;;;21.58;54.04
53900;BME280;40509;32.858;-116.858;2023-03-19T04:20:07;98132.06;;;21.52;54.26
53900;BME280;40509;32.858;-116.858;2023-03-19T04:22:35;98130.41;;;21.51;54.57
53900;BME280;40509;32.858;-116.858;2023-03-19T04:25:03;98127.78;;;21.51;54.16
53900;BME280;40509;32.858;-116.858;2023-03-19T04:27:31;98140.75;;;21.52;54.12
53900;BME280;40509;32.858;-116.858;2023-03-19T04:29:58;98142.31;;;21.45;54.54
53900;BME280;40509;32.858;-116.858;2023-03-19T04:32:27;98131.56;;;21.38;54.59
53900;BME280;40509;32.858;-116.858;2023-03-19T04:34:54;98134.63;;;21.34;54.89
53900;BME280;40509;32.858;-116.858;2023-03-19T04:37:24;98133.78;;;21.33;54.78
53900;BME280;40509;32.858;-116.858;2023-03-19T04:39:51;98127.72;;;21.33;54.74
53900;BME280;40509;32.858;-116.858;2023-03-19T04:42:20;98133.28;;;21.30;55.00
53900;BME280;40509;32.858;-116.858;2023-03-19T04:44:57;98132.56;;;21.28;55.09
53900;BME280;40509;32.858;-116.858;2023-03-19T04:47:24;98132.56;;;21.28;55.10
53900;BME280;40509;32.858;-116.858;2023-03-19T04:49:55;98133.69;;;21.25;54.94
53900;BME280;40509;32.858;-116.858;2023-03-19T04:52:24;98149.59;;;21.23;55.26
53900;BME280;40509;32.858;-116.858;2023-03-19T04:54:51;98143.63;;;21.21;55.39
53900;BME280;40509;32.858;-116.858;2023-03-19T04:57:19;98146.25;;;21.21;55.50
53900;BME280;40509;32.858;-116.858;2023-03-19T04:59:48;98135.09;;;21.19;55.55
53900;BME280;40509;32.858;-116.858;2023-03-19T05:02:16;98121.16;;;21.19;55.55
53900;BME280;40509;32.858;-116.858;2023-03-19T05:04:44;98145.44;;;21.21;55.50
53900;BME280;40509;32.858;-116.858;2023-03-19T05:07:14;98155.53;;;21.26;55.24
53900;BME280;40509;32.858;-116.858;2023-03-19T05:09:43;98150.13;;;21.27;55.22
53900;BME280;40509;32.858;-116.858;2023-03-19T05:12:13;98149.28;;;21.27;55.32
53900;BME280;40509;32.858;-116.858;2023-03-19T05:14:48;98152.06;;;21.25;55.42
53900;BME280;40509;32.858;-116.858;2023-03-19T05:17:25;98146.97;;;21.23;55.42
53900;BME280;40509;32.858;-116.858;2023-03-19T05:20:07;98145.16;;;21.24;55.57
53900;BME280;40509;32.858;-116.858;2023-03-19T05:22:35;98142.81;;;21.21;55.45
53900;BME280;40509;32.858;-116.858;2023-03-19T05:25:03;98134.81;;;21.22;55.60
53900;BME280;40509;32.858;-116.858;2023-03-19T05:27:31;98125.25;;;21.21;55.55
53900;BME280;40509;32.858;-116.858;2023-03-19T05:30:06;98132.47;;;21.19;55.64
53900;BME280;40509;32.858;-116.858;2023-03-19T05:32:49;98139.22;;;21.22;55.60
53900;BME280;40509;32.858;-116.858;2023-03-19T05:35:38;98149.03;;;21.20;55.98
53900;BME280;40509;32.858;-116.858;2023-03-19T05:38:13;98148.53;;;21.16;55.96
53900;BME280;40509;32.858;-116.858;2023-03-19T05:40:44;98139.94;;;21.14;55.92
53900;BME280;40509;32.858;-116.858;2023-03-19T05:43:21;98140.09;;;21.13;55.95
53900;BME280;40509;32.858;-116.858;2023-03-19T05:45:50;98136.66;;;21.12;56.11
53900;BME280;40509;32.858;-116.858;2023-03-19T05:48:22;98131.66;;;21.09;55.94
53900;BME280;40509;32.858;-116.858;2023-03-19T05:50:51;98129.03;;;21.09;55.99
53900;BME280;40509;32.858;-116.858;2023-03-19T05:53:21;98135.28;;;21.08;56.09
53900;BME280;40509;32.858;-116.858;2023-03-19T05:56:05;98134.44;;;21.08;56.09
53900;BME280;40509;32.858;-116.858;2023-03-19T05:58:40;98126.72;;;21.06;56.22
53900;BME280;40509;32.858;-116.858;2023-03-19T06:01:08;98120.78;;;21.04;56.29
53900;BME280;40509;32.858;-116.858;2023-03-19T06:03:35;98111.25;;;21.03;56.26
53900;BME280;40509;32.858;-116.858;2023-03-19T06:06:07;98103.53;;;21.01;56.34
53900;BME280;40509;32.858;-116.858;2023-03-19T06:08:38;98101.72;;;21.02;56.33
53900;BME280;40509;32.858;-116.858;2023-03-19T06:11:15;98109.59;;;21.02;56.37
53900;BME280;40509;32.858;-116.858;2023-03-19T06:13:45;98101.72;;;21.02;56.42
53900;BME280;40509;32.858;-116.858;2023-03-19T06:16:17;98087.78;;;21.01;56.23
53900;BME280;40509;32.858;-116.858;2023-03-19T06:18:51;98082.53;;;21.01;56.45
53900;BME280;40509;32.858;-116.858;2023-03-19T06:21:22;98089.72;;;20.99;56.47
53900;BME280;40509;32.858;-116.858;2023-03-19T06:23:58;98089.84;;;20.98;56.29
53900;BME280;40509;32.858;-116.858;2023-03-19T06:26:31;98083.91;;;20.96;56.46
53900;BME280;40509;32.858;-116.858;2023-03-19T06:28:59;98092.78;;;20.95;56.44
53900;BME280;40509;32.858;-116.858;2023-03-19T06:31:27;98085.44;;;20.98;56.48
53900;BME280;40509;32.858;-116.858;2023-03-19T06:34:00;98085.56;;;20.97;56.54
53900;BME280;40509;32.858;-116.858;2023-03-19T06:36:37;98081.97;;;20.98;56.38
53900;BME280;40509;32.858;-116.858;2023-03-19T06:39:04;98082.13;;;20.96;56.56
53900;BME280;40509;32.858;-116.858;2023-03-19T06:41:31;98092.78;;;20.95;56.40
53900;BME280;40509;32.858;-116.858;2023-03-19T06:44:10;98097.03;;;20.96;56.52
53900;BME280;40509;32.858;-116.858;2023-03-19T06:46:38;98097.88;;;20.96;56.41
53900;BME280;40509;32.858;-116.858;2023-03-19T06:49:05;98096.22;;;20.95;56.57
53900;BME280;40509;32.858;-116.858;2023-03-19T06:51:32;98078.00;;;20.94;56.44
53900;BME280;40509;32.858;-116.858;2023-03-19T06:54:00;98082.69;;;20.90;56.69
53900;BME280;40509;32.858;-116.858;2023-03-19T06:56:27;98082.03;;;20.88;56.87
53900;BME280;40509;32.858;-116.858;2023-03-19T06:58:55;98079.56;;;20.86;56.79
53900;BME280;40509;32.858;-116.858;2023-03-19T07:01:22;98077.75;;;20.87;56.62
53900;BME280;40509;32.858;-116.858;2023-03-19T07:03:49;98072.50;;;20.87;56.63
53900;BME280;40509;32.858;-116.858;2023-03-19T07:06:16;98090.03;;;20.86;56.78
53900;BME280;40509;32.858;-116.858;2023-03-19T07:08:43;98078.84;;;20.84;56.77
53900;BME280;40509;32.858;-116.858;2023-03-19T07:11:12;98071.13;;;20.83;56.86
53900;BME280;40509;32.858;-116.858;2023-03-19T07:13:40;98074.84;;;20.80;56.83
53900;BME280;40509;32.858;-116.858;2023-03-19T07:16:07;98083.69;;;20.79;56.90
53900;BME280;40509;32.858;-116.858;2023-03-19T07:18:35;98090.91;;;20.77;56.87
53900;BME280;40509;32.858;-116.858;2023-03-19T07:21:02;98087.31;;;20.78;56.99
53900;BME280;40509;32.858;-116.858;2023-03-19T07:23:29;98089.22;;;20.76;56.92
53900;BME280;40509;32.858;-116.858;2023-03-19T07:25:57;98087.56;;;20.75;56.84
53900;BME280;40509;32.858;-116.858;2023-03-19T07:28:24;98081.66;;;20.73;56.90
53900;BME280;40509;32.858;-116.858;2023-03-19T07:30:51;98076.56;;;20.71;56.95
53900;BME280;40509;32.858;-116.858;2023-03-19T07:33:19;98071.41;;;20.70;56.94
53900;BME280;40509;32.858;-116.858;2023-03-19T07:35:48;98069.66;;;20.70;56.90
53900;BME280;40509;32.858;-116.858;2023-03-19T07:38:17;98075.72;;;20.71;56.83
53900;BME280;40509;32.858;-116.858;2023-03-19T07:40:45;98083.03;;;20.67;57.08
53900;BME280;40509;32.858;-116.858;2023-03-19T07:43:12;98094.34;;;20.68;56.81
53900;BME280;40509;32.858;-116.858;2023-03-19T07:45:39;98104.00;;;20.67;56.99
53900;BME280;40509;32.858;-116.858;2023-03-19T07:48:06;98102.50;;;20.65;57.07
53900;BME280;40509;32.858;-116.858;2023-03-19T07:50:35;98096.41;;;20.64;56.92
53900;BME280;40509;32.858;-116.858;2023-03-19T07:53:02;98082.63;;;20.62;57.14
53900;BME280;40509;32.858;-116.858;2023-03-19T07:55:29;98080.94;;;20.61;57.02
53900;BME280;40509;32.858;-116.858;2023-03-19T07:57:57;98090.63;;;20.61;56.97
53900;BME280;40509;32.858;-116.858;2023-03-19T08:00:24;98096.84;;;20.60;56.77
53900;BME280;40509;32.858;-116.858;2023-03-19T08:02:52;98094.34;;;20.58;56.96
53900;BME280;40509;32.858;-116.858;2023-03-19T08:05:19;98090.88;;;20.58;57.08
53900;BME280;40509;32.858;-116.858;2023-03-19T08:07:47;98102.38;;;20.57;56.98
53900;BME280;40509;32.858;-116.858;2023-03-19T08:10:16;98101.53;;;20.56;56.98
53900;BME280;40509;32.858;-116.858;2023-03-19T08:12:43;98093.81;;;20.54;57.13
53900;BME280;40509;32.858;-116.858;2023-03-19T08:15:11;98092.28;;;20.52;56.85
53900;BME280;40509;32.858;-116.858;2023-03-19T08:17:38;98098.38;;;20.52;57.09
53900;BME280;40509;32.858;-116.858;2023-03-19T08:20:09;98101.00;;;20.52;57.01
53900;BME280;40509;32.858;-116.858;2023-03-19T08:22:37;98096.72;;;20.51;56.79
53900;BME280;40509;32.858;-116.858;2023-03-19T08:25:06;98082.09;;;20.49;57.14
53900;BME280;40509;32.858;-116.858;2023-03-19T08:27:34;98089.25;;;20.47;56.96
53900;BME280;40509;32.858;-116.858;2023-03-19T08:30:04;98071.03;;;20.45;57.13
53900;BME280;40509;32.858;-116.858;2023-03-19T08:32:34;98066.09;;;20.42;57.14
53900;BME280;40509;32.858;-116.858;2023-03-19T08:35:02;98061.81;;;20.41;57.00
53900;BME280;40509;32.858;-116.858;2023-03-19T08:37:30;98061.13;;;20.39;56.94
53900;BME280;40509;32.858;-116.858;2023-03-19T08:39:57;98059.47;;;20.38;57.15
53900;BME280;40509;32.858;-116.858;2023-03-19T08:42:25;98056.84;;;20.38;57.08
53900;BME280;40509;32.858;-116.858;2023-03-19T08:44:53;98048.97;;;20.38;57.01
53900;BME280;40509;32.858;-116.858;2023-03-19T08:47:20;98050.91;;;20.36;57.18
53900;BME280;40509;32.858;-116.858;2023-03-19T08:49:50;98054.50;;;20.35;57.07
53900;BME280;40509;32.858;-116.858;2023-03-19T08:52:18;98054.50;;;20.35;56.90
53900;BME280;40509;32.858;-116.858;2023-03-19T08:54:46;98061.53;;;20.34;56.62
53900;BME280;40509;32.858;-116.858;2023-03-19T08:57:13;98066.09;;;20.32;56.78
53900;BME280;40509;32.858;-116.858;2023-03-19T08:59:41;98068.88;;;20.31;56.88
53900;BME280;40509;32.858;-116.858;2023-03-19T09:02:11;98067.22;;;20.30;57.03
53900;BME280;40509;32.858;-116.858;2023-03-19T09:04:41;98076.03;;;20.29;56.84
53900;BME280;40509;32.858;-116.858;2023-03-19T09:07:09;98071.75;;;20.28;56.69
53900;BME280;40509;32.858;-116.858;2023-03-19T09:09:39;98081.41;;;20.27;56.85
53900;BME280;40509;32.858;-116.858;2023-03-19T09:12:09;98071.88;;;20.26;56.57
53900;BME280;40509;32.858;-116.858;2023-03-19T09:14:37;98077.28;;;20.25;56.79
53900;BME280;40509;32.858;-116.858;2023-03-19T09:17:06;98082.66;;;20.23;57.06
53900;BME280;40509;32.858;-116.858;2023-03-19T09:19:33;98075.75;;;20.22;56.86
53900;BME280;40509;32.858;-116.858;2023-03-19T09:22:02;98067.91;;;20.22;56.81
53900;BME280;40509;32.858;-116.858;2023-03-19T09:24:29;98074.09;;;20.21;56.67
53900;BME280;40509;32.858;-116.858;2023-03-19T09:26:56;98076.88;;;20.19;56.67
53900;BME280;40509;32.858;-116.858;2023-03-19T09:29:24;98076.03;;;20.19;56.84
53900;BME280;40509;32.858;-116.858;2023-03-19T09:31:51;98086.53;;;20.19;56.69
53900;BME280;40509;32.858;-116.858;2023-03-19T09:34:18;98094.53;;;20.17;56.75
53900;BME280;40509;32.858;-116.858;2023-03-19T09:36:46;98092.88;;;20.16;56.65
53900;BME280;40509;32.858;-116.858;2023-03-19T09:39:13;98099.06;;;20.15;56.95
53900;BME280;40509;32.858;-116.858;2023-03-19T09:41:48;98097.41;;;20.14;56.63
53900;BME280;40509;32.858;-116.858;2023-03-19T09:44:28;98101.84;;;20.14;56.81
53900;BME280;40509;32.858;-116.858;2023-03-19T09:49:46;98104.75;;;20.11;56.76
53900;BME280;40509;32.858;-116.858;2023-03-19T09:57:55;98092.72;;;20.08;56.95
53900;BME280;40509;32.858;-116.858;2023-03-19T10:00:27;98080.59;;;20.07;56.82
53900;BME280;40509;32.858;-116.858;2023-03-19T10:08:57;98070.41;;;20.04;56.84
53900;BME280;40509;32.858;-116.858;2023-03-19T10:17:28;98048.06;;;20.00;56.93
53900;BME280;40509;32.858;-116.858;2023-03-19T10:22:44;98055.22;;;19.98;56.71
53900;BME280;40509;32.858;-116.858;2023-03-19T10:25:19;98062.25;;;19.97;56.45
53900;BME280;40509;32.858;-116.858;2023-03-19T10:28:00;98062.41;;;19.96;56.51
53900;BME280;40509;32.858;-116.858;2023-03-19T10:30:32;98058.13;;;19.95;56.53
53900;BME280;40509;32.858;-116.858;2023-03-19T10:33:24;98061.69;;;19.94;56.75
53900;BME280;40509;32.858;-116.858;2023-03-19T10:36:01;98056.44;;;19.94;56.66
53900;BME280;40509;32.858;-116.858;2023-03-19T10:38:30;98071.34;;;19.93;56.79
53900;BME280;40509;32.858;-116.858;2023-03-19T10:43:57;98063.63;;;19.92;56.56
53900;BME280;40509;32.858;-116.858;2023-03-19T10:46:26;98078.50;;;19.91;56.44
53900;BME280;40509;32.858;-116.858;2023-03-19T10:48:53;98083.75;;;19.91;56.30
53900;BME280;40509;32.858;-116.858;2023-03-19T10:51:25;98092.72;;;19.88;56.22
53900;BME280;40509;32.858;-116.858;2023-03-19T10:53:53;98098.09;;;19.87;56.29
53900;BME280;40509;32.858;-116.858;2023-03-19T10:56:24;98094.50;;;19.88;55.98
53900;BME280;40509;32.858;-116.858;2023-03-19T10:58:58;98079.88;;;19.85;56.55
53900;BME280;40509;32.858;-116.858;2023-03-19T11:01:31;98083.34;;;19.86;56.35
53900;BME280;40509;32.858;-116.858;2023-03-19T11:04:01;98068.88;;;19.82;56.54
53900;BME280;40509;32.858;-116.858;2023-03-19T11:06:32;98052.31;;;19.81;56.61
53900;BME280;40509;32.858;-116.858;2023-03-19T11:09:11;98045.31;;;19.82;56.47
53900;BME280;40509;32.858;-116.858;2023-03-19T11:11:43;98041.84;;;19.81;56.38
53900;BME280;40509;32.858;-116.858;2023-03-19T11:16:55;98019.47;;;19.77;56.08
53900;BME280;40509;32.858;-116.858;2023-03-19T11:19:29;98014.22;;;19.77;56.31
53900;BME280;40509;32.858;-116.858;2023-03-19T11:22:11;98008.19;;;19.77;56.21
53900;BME280;40509;32.858;-116.858;2023-03-19T11:24:52;97998.81;;;19.74;56.29
53900;BME280;40509;32.858;-116.858;2023-03-19T11:27:27;97982.25;;;19.74;56.50
53900;BME280;40509;32.858;-116.858;2023-03-19T11:29:55;97967.66;;;19.71;56.18
53900;BME280;40509;32.858;-116.858;2023-03-19T11:35:14;97948.47;;;19.70;56.08
53900;BME280;40509;32.858;-116.858;2023-03-19T11:37:52;97966.81;;;19.70;56.41
53900;BME280;40509;32.858;-116.858;2023-03-19T12:03:20;98011.63;;;19.67;55.74
53900;BME280;40509;32.858;-116.858;2023-03-19T12:06:00;98015.63;;;19.62;56.49
53900;BME280;40509;32.858;-116.858;2023-03-19T12:11:19;98005.66;;;19.55;56.22
53900;BME280;40509;32.858;-116.858;2023-03-19T12:20:01;98004.44;;;19.50;56.43
53900;BME280;40509;32.858;-116.858;2023-03-19T12:28:07;98012.16;;;19.51;56.01
53900;BME280;40509;32.858;-116.858;2023-03-19T12:31:26;98008.16;;;19.47;56.30
53900;BME280;40509;32.858;-116.858;2023-03-19T12:36:37;97994.50;;;19.44;56.67
53900;BME280;40509;32.858;-116.858;2023-03-19T12:39:16;97988.44;;;19.43;56.61
53900;BME280;40509;32.858;-116.858;2023-03-19T12:41:45;97979.63;;;19.44;56.34
53900;BME280;40509;32.858;-116.858;2023-03-19T12:44:26;97969.59;;;19.49;56.11
53900;BME280;40509;32.858;-116.858;2023-03-19T12:47:02;97960.22;;;19.47;56.24
53900;BME280;40509;32.858;-116.858;2023-03-19T12:49:48;97959.22;;;19.48;56.03
53900;BME280;40509;32.858;-116.858;2023-03-19T12:52:28;97970.69;;;19.47;56.07
53900;BME280;40509;32.858;-116.858;2023-03-19T12:58:26;97995.19;;;19.46;56.40
53900;BME280;40509;32.858;-116.858;2023-03-19T13:01:35;97997.66;;;19.47;56.04
53900;BME280;40509;32.858;-116.858;2023-03-19T13:04:37;97991.63;;;19.47;55.90
53900;BME280;40509;32.858;-116.858;2023-03-19T13:07:20;98004.16;;;19.43;56.38
53900;BME280;40509;32.858;-116.858;2023-03-19T13:09:55;98015.19;;;19.47;55.72
53900;BME280;40509;32.858;-116.858;2023-03-19T13:12:26;98029.38;;;19.44;56.10
53900;BME280;40509;32.858;-116.858;2023-03-19T13:15:19;98028.41;;;19.45;56.06
53900;BME280;40509;32.858;-116.858;2023-03-19T13:21:25;98025.50;;;19.48;55.52
53900;BME280;40509;32.858;-116.858;2023-03-19T13:24:38;98015.56;;;19.42;55.65
53900;BME280;40509;32.858;-116.858;2023-03-19T13:27:08;98007.84;;;19.41;55.60
53900;BME280;40509;32.858;-116.858;2023-03-19T13:32:43;98002.75;;;19.39;55.80
53900;BME280;40509;32.858;-116.858;2023-03-19T13:37:46;97987.75;;;19.41;55.43
53900;BME280;40509;32.858;-116.858;2023-03-19T13:40:41;97987.19;;;19.37;55.73
53900;BME280;40509;32.858;-116.858;2023-03-19T13:46:34;97981.53;;;19.32;55.72
53900;BME280;40509;32.858;-116.858;2023-03-19T13:49:26;97973.81;;;19.41;55.40
53900;BME280;40509;32.858;-116.858;2023-03-19T13:51:59;97969.00;;;19.36;55.80
53900;BME280;40509;32.858;-116.858;2023-03-19T13:54:38;97974.25;;;19.36;55.94
53900;BME280;40509;32.858;-116.858;2023-03-19T13:59:43;97973.81;;;19.41;55.27
53900;BME280;40509;32.858;-116.858;2023-03-19T14:05:07;97965.16;;;19.40;55.58
53900;BME280;40509;32.858;-116.858;2023-03-19T14:07:50;97973.41;;;19.35;55.25
53900;BME280;40509;32.858;-116.858;2023-03-19T14:10:30;97963.22;;;19.32;55.63
53900;BME280;40509;32.858;-116.858;2023-03-19T14:13:06;97967.34;;;19.35;55.12
53900;BME280;40509;32.858;-116.858;2023-03-19T14:15:38;97988.28;;;19.35;55.25
53900;BME280;40509;32.858;-116.858;2023-03-19T14:18:15;97977.25;;;19.31;55.62
53900;BME280;40509;32.858;-116.858;2023-03-19T14:20:56;97978.09;;;19.32;55.57
53900;BME280;40509;32.858;-116.858;2023-03-19T14:23:26;97994.63;;;19.32;55.47
53900;BME280;40509;32.858;-116.858;2023-03-19T14:26:04;97990.91;;;19.35;55.41
53900;BME280;40509;32.858;-116.858;2023-03-19T14:36:50;97981.94;;;19.28;55.09
53900;BME280;40509;32.858;-116.858;2023-03-19T14:39:26;97985.09;;;19.31;55.12